Time;durP1;ratioP1;P1;durP2;ratioP2;P2;SDS_P1;SDS_P2;PMS_P1;PMS_P2;Temp;Humidity;BMP_temperature;BMP_pressure;BME280_temperature;BME280_humidity;BME280_pressure;Samples;Min_cycle;Max_cycle;Signal;HPM_P1;HPM_P2
2022/03/29 00:02:11;;;;;;;1.92;0.95;;;;;;;2.16;66.59;97494.84;4827314;29;20073;-78
2022/03/29 00:04:37;;;;;;;3.28;1.05;;;;;;;2.06;66.79;97487.28;4850422;29;20045;-80
2022/03/29 00:07:03;;;;;;;3.22;1.10;;;;;;;2.04;66.14;97489.03;4819894;29;20097;-78
2022/03/29 00:09:29;;;;;;;2.75;1.17;;;;;;;1.93;66.58;97473.75;4836814;29;20073;-79
2022/03/29 00:11:55;;;;;;;3.83;1.25;;;;;;;2.08;65.93;97506.09;4819294;29;20068;-78
2022/03/29 00:14:21;;;;;;;6.03;1.27;;;;;;;1.91;66.34;97482.31;4836992;29;20140;-78
2022/03/29 00:16:47;;;;;;;2.83;1.42;;;;;;;1.94;66.35;97500.22;4819912;29;20046;-77
2022/03/29 00:19:14;;;;;;;4.75;1.60;;;;;;;2.01;66.13;97503.56;4820075;29;20049;-77
2022/03/29 00:21:40;;;;;;;3.83;1.73;;;;;;;1.85;66.68;97490.94;4805085;29;20137;-76
2022/03/29 00:24:06;;;;;;;2.95;1.58;;;;;;;1.92;66.18;97512.22;4836910;29;20046;-79
2022/03/29 00:26:32;;;;;;;2.35;1.13;;;;;;;1.87;66.39;97514.00;4836056;29;20094;-78
2022/03/29 00:28:58;;;;;;;2.30;1.00;;;;;;;1.68;66.13;97497.94;4819750;29;20045;-79
2022/03/29 00:31:25;;;;;;;3.00;1.20;;;;;;;1.70;66.39;97503.91;4850389;29;20042;-77
2022/03/29 00:33:51;;;;;;;2.58;1.30;;;;;;;1.78;66.55;97510.66;4827879;29;20501;-79
2022/03/29 00:36:18;;;;;;;3.35;1.30;;;;;;;1.75;66.58;97507.28;4842600;29;20045;-75
2022/03/29 00:38:46;;;;;;;4.22;1.52;;;;;;;1.79;66.49;97501.25;4841433;29;20057;-79
2022/03/29 00:41:12;;;;;;;3.03;1.30;;;;;;;1.87;66.72;97527.66;4849632;29;20056;-79
2022/03/29 00:43:40;;;;;;;4.03;1.20;;;;;;;1.92;66.86;97525.91;4811114;29;20045;-79
2022/03/29 00:46:06;;;;;;;1.88;0.90;;;;;;;1.97;66.88;97523.28;4847045;29;20080;-78
2022/03/29 00:48:32;;;;;;;2.33;0.93;;;;;;;1.99;66.84;97536.94;4844361;29;20061;-78
2022/03/29 00:50:58;;;;;;;3.33;1.08;;;;;;;2.01;66.77;97524.09;4813867;29;20158;-78
2022/03/29 00:53:25;;;;;;;1.88;0.82;;;;;;;1.99;66.91;97518.16;4824494;29;20124;-78
2022/03/29 00:55:54;;;;;;;2.80;1.10;;;;;;;1.91;66.15;97507.97;4841877;29;20046;-78
2022/03/29 00:58:20;;;;;;;1.83;0.90;;;;;;;1.87;66.39;97502.03;4824566;29;20042;-78
2022/03/29 01:00:47;;;;;;;2.42;0.93;;;;;;;1.80;66.35;97490.97;4834315;29;20446;-76
2022/03/29 01:03:15;;;;;;;5.63;1.30;;;;;;;1.97;66.63;97507.91;4848045;29;20379;-76
2022/03/29 01:05:42;;;;;;;2.20;1.15;;;;;;;1.84;66.87;97496.91;4837900;29;20050;-77
2022/03/29 01:08:08;;;;;;;2.55;0.90;;;;;;;1.78;66.89;97476.47;4821740;29;20049;-77
2022/03/29 01:10:34;;;;;;;3.72;1.13;;;;;;;1.97;66.38;97513.03;4846212;29;20053;-79
2022/03/29 01:13:00;;;;;;;3.15;1.40;;;;;;;1.97;66.41;97513.03;4836068;29;20038;-77
2022/03/29 01:15:30;;;;;;;2.33;1.00;;;;;;;1.92;66.83;97504.53;4844410;29;20056;-80
2022/03/29 01:17:57;;;;;;;2.55;1.10;;;;;;;1.84;66.54;97496.09;4861138;29;20045;-78
2022/03/29 01:20:27;;;;;;;1.40;1.00;;;;;;;1.78;66.61;97499.53;4858176;29;20042;-77
2022/03/29 01:22:54;;;;;;;2.58;1.10;;;;;;;1.75;66.51;97495.31;4842614;29;20514;-80
2022/03/29 01:25:33;;;;;;;2.15;1.40;;;;;;;1.62;66.33;97486.06;4839375;29;20042;-79
2022/03/29 01:27:59;;;;;;;2.97;1.30;;;;;;;1.55;66.82;97481.84;4816108;29;20049;-77
2022/03/29 01:30:26;;;;;;;3.35;1.65;;;;;;;1.54;66.78;97488.69;4827335;29;20041;-75
2022/03/29 01:32:53;;;;;;;3.60;1.38;;;;;;;1.56;66.66;97504.88;4834090;29;20510;-79
2022/03/29 01:35:24;;;;;;;2.90;1.10;;;;;;;1.35;66.91;97468.34;4830120;29;20046;-77
2022/03/29 01:37:51;;;;;;;3.35;1.60;;;;;;;1.41;67.06;97487.09;4852613;29;20078;-77
2022/03/29 01:40:23;;;;;;;2.53;1.38;;;;;;;1.41;66.58;97495.63;4829875;29;20057;-78
2022/03/29 01:42:51;;;;;;;2.92;1.25;;;;;;;1.44;67.23;97498.16;4842253;29;20544;-78
2022/03/29 01:45:19;;;;;;;3.63;1.27;;;;;;;1.33;66.48;97492.28;4845912;29;20045;-79
2022/03/29 01:47:45;;;;;;;4.65;1.40;;;;;;;1.39;66.17;97504.19;4845217;29;20057;-78
2022/03/29 01:50:14;;;;;;;2.47;1.10;;;;;;;1.26;66.88;97498.31;4861093;29;20072;-78
2022/03/29 01:52:48;;;;;;;3.60;1.45;;;;;;;1.33;66.87;97502.53;4831992;29;20048;-77
2022/03/29 01:55:16;;;;;;;2.25;1.30;;;;;;;1.41;66.99;97523.84;4841092;29;20055;-78
2022/03/29 01:57:43;;;;;;;2.00;1.40;;;;;;;1.34;66.92;97505.06;4837001;29;20077;-78
2022/03/29 02:02:56;;;;;;;2.88;1.25;;;;;;;1.51;66.47;97511.78;4834694;29;20136;-77
2022/03/29 02:05:23;;;;;;;2.35;1.50;;;;;;;1.56;67.05;97519.44;4821840;29;20053;-78
2022/03/29 02:07:50;;;;;;;2.75;1.40;;;;;;;1.59;67.02;97535.63;4838096;29;20094;-79
2022/03/29 02:10:20;;;;;;;3.17;1.17;;;;;;;1.34;66.83;97476.88;4832348;29;20452;-75
2022/03/29 02:12:47;;;;;;;4.45;1.33;;;;;;;1.74;67.21;97536.38;4838381;29;20584;-76
2022/03/29 02:15:13;;;;;;;3.13;1.30;;;;;;;1.75;66.64;97533.78;4821113;29;20057;-77
2022/03/29 02:17:41;;;;;;;1.88;1.25;;;;;;;1.91;66.55;97543.88;4821873;29;20107;-78
2022/03/29 02:20:08;;;;;;;2.10;1.00;;;;;;;1.94;66.71;97541.28;4852372;29;20046;-78
2022/03/29 02:22:34;;;;;;;4.10;1.00;;;;;;;1.95;66.45;97540.41;4837991;29;20057;-78
2022/03/29 02:25:00;;;;;;;3.40;1.10;;;;;;;2.02;66.81;97549.75;4838508;29;20081;-78
2022/03/29 02:27:26;;;;;;;1.58;1.00;;;;;;;1.99;66.91;97536.13;4857207;29;20140;-78
2022/03/29 02:29:53;;;;;;;1.90;1.05;;;;;;;1.87;66.85;97508.88;4806432;29;20113;-78
2022/03/29 02:32:19;;;;;;;3.50;1.10;;;;;;;2.04;66.43;97535.19;4852365;29;20132;-79
2022/03/29 02:34:45;;;;;;;2.67;0.90;;;;;;;2.07;66.56;97549.69;4837419;29;20050;-77
2022/03/29 02:37:13;;;;;;;2.60;1.00;;;;;;;2.08;66.24;97547.13;4838258;29;20421;-78
2022/03/29 02:39:39;;;;;;;2.13;1.10;;;;;;;2.11;65.94;97556.50;4817511;29;20054;-78
2022/03/29 02:42:07;;;;;;;1.83;0.90;;;;;;;2.11;66.59;97552.22;4839124;29;20050;-78
2022/03/29 02:44:33;;;;;;;1.98;0.73;;;;;;;2.06;66.22;97560.81;4836464;29;20041;-76
2022/03/29 02:46:59;;;;;;;2.72;0.98;;;;;;;1.99;66.40;97556.66;4821200;29;20422;-79
2022/03/29 02:49:25;;;;;;;3.47;1.02;;;;;;;1.89;66.23;97531.06;4851785;29;20051;-78
2022/03/29 02:51:52;;;;;;;1.27;0.98;;;;;;;1.99;66.84;97552.34;4838217;29;20138;-78
2022/03/29 02:54:19;;;;;;;1.90;0.90;;;;;;;1.96;65.78;97552.38;4864021;29;20033;-77
2022/03/29 02:56:45;;;;;;;2.63;1.17;;;;;;;1.87;66.19;97526.84;4860071;29;20085;-77
2022/03/29 02:59:12;;;;;;;2.78;0.80;;;;;;;2.02;66.19;97569.41;4865133;29;20048;-77
2022/03/29 03:01:39;;;;;;;1.10;0.85;;;;;;;1.82;66.38;97543.97;4839271;29;20050;-78
2022/03/29 03:04:05;;;;;;;3.20;0.90;;;;;;;2.03;65.87;97578.81;4851593;29;20666;-77
2022/03/29 03:06:31;;;;;;;2.50;0.80;;;;;;;1.94;65.77;97552.41;4820649;29;20505;-79
2022/03/29 03:08:57;;;;;;;2.55;1.20;;;;;;;2.11;65.58;97562.47;4851557;29;20048;-77
2022/03/29 03:11:23;;;;;;;2.75;0.90;;;;;;;2.11;66.13;97572.72;4837237;29;20518;-77
2022/03/29 03:13:50;;;;;;;2.42;1.10;;;;;;;2.09;65.54;97574.50;4835599;29;20117;-77
2022/03/29 03:16:16;;;;;;;1.98;1.27;;;;;;;2.05;65.15;97556.56;4850484;29;20069;-78
2022/03/29 03:18:42;;;;;;;4.82;1.55;;;;;;;2.10;65.17;97573.59;4837711;29;20141;-78
2022/03/29 03:21:09;;;;;;;4.00;1.30;;;;;;;1.97;65.29;97553.25;4835937;29;20942;-80
2022/03/29 03:23:35;;;;;;;2.38;1.20;;;;;;;2.11;65.60;97577.88;4837200;29;20409;-80
2022/03/29 03:26:01;;;;;;;5.65;2.25;;;;;;;1.90;65.41;97548.16;4834971;29;20498;-81
2022/03/29 03:28:28;;;;;;;3.78;1.52;;;;;;;1.80;65.50;97539.72;4821208;29;20045;-81
2022/03/29 03:30:54;;;;;;;2.72;1.73;;;;;;;2.01;65.48;97583.97;4806017;29;20069;-80
2022/03/29 03:33:20;;;;;;;2.72;1.70;;;;;;;2.00;64.83;97594.22;4820879;29;20034;-80
2022/03/29 03:35:46;;;;;;;4.20;1.70;;;;;;;1.98;65.17;97590.84;4821365;29;20053;-79
2022/03/29 03:38:13;;;;;;;3.45;1.67;;;;;;;1.93;65.63;97585.75;4820077;29;20081;-80
2022/03/29 03:40:41;;;;;;;4.05;1.40;;;;;;;1.78;64.97;97563.66;4837227;29;20140;-79
2022/03/29 03:43:08;;;;;;;3.20;1.77;;;;;;;1.92;64.73;97589.19;4836142;29;20057;-79
2022/03/29 03:45:34;;;;;;;3.85;2.50;;;;;;;1.75;65.03;97563.72;4805168;29;20045;-79
2022/03/29 03:48:02;;;;;;;5.50;1.30;;;;;;;1.64;64.98;97556.94;4820930;29;20049;-81
2022/03/29 03:50:28;;;;;;;5.30;1.38;;;;;;;1.86;64.85;97607.22;4826379;29;20137;-79
2022/03/29 03:52:54;;;;;;;4.60;1.67;;;;;;;1.85;64.79;97606.34;4824056;29;20101;-81
2022/03/29 03:55:22;;;;;;;2.55;1.60;;;;;;;1.74;64.85;97597.91;4838831;29;20049;-78
2022/03/29 03:57:49;;;;;;;4.40;1.42;;;;;;;1.80;64.99;97606.41;4825111;29;20137;-79
2022/03/29 04:00:16;;;;;;;3.83;1.50;;;;;;;1.89;65.17;97617.41;4825859;29;20057;-79
2022/03/29 04:02:42;;;;;;;2.28;1.23;;;;;;;1.56;64.96;97555.31;4842396;29;20105;-78
2022/03/29 04:05:12;;;;;;;2.85;1.38;;;;;;;2.00;65.05;97620.75;4839737;29;20141;-79
2022/03/29 04:07:38;;;;;;;4.20;1.30;;;;;;;2.16;65.69;97618.91;4833810;29;20058;-78
2022/03/29 04:10:07;;;;;;;3.75;1.40;;;;;;;2.05;65.27;97598.47;4827015;29;20094;-79
2022/03/29 04:12:34;;;;;;;3.67;1.95;;;;;;;2.36;65.08;97623.81;4815188;29;20049;-79
2022/03/29 04:15:00;;;;;;;4.20;1.50;;;;;;;2.40;64.71;97609.25;4825680;29;20041;-80
2022/03/29 04:17:26;;;;;;;3.42;1.40;;;;;;;2.30;64.82;97579.38;4829193;29;20050;-78
2022/03/29 04:19:52;;;;;;;2.70;1.50;;;;;;;2.36;64.89;97580.16;4857471;29;20050;-77
2022/03/29 04:22:18;;;;;;;4.43;2.08;;;;;;;2.53;64.95;97612.53;4825246;29;20083;-79
2022/03/29 04:24:45;;;;;;;6.25;2.20;;;;;;;2.47;64.58;97600.59;4836637;29;20045;-79
2022/03/29 04:27:11;;;;;;;3.97;1.92;;;;;;;2.53;64.26;97633.91;4836867;29;20042;-78
2022/03/29 04:29:37;;;;;;;5.95;1.80;;;;;;;2.49;64.06;97639.09;4838736;29;20077;-78
2022/03/29 04:32:03;;;;;;;2.53;1.60;;;;;;;2.56;64.93;97650.97;4835635;29;20041;-76
2022/03/29 04:34:29;;;;;;;4.45;2.00;;;;;;;2.52;64.15;97631.38;4858218;29;20234;-77
2022/03/29 04:36:58;;;;;;;5.07;2.00;;;;;;;2.66;64.07;97637.19;4844176;29;20041;-77
2022/03/29 04:39:25;;;;;;;5.80;2.10;;;;;;;2.94;64.22;97651.41;4848424;29;20041;-77
2022/03/29 04:41:51;;;;;;;5.55;1.83;;;;;;;3.12;63.54;97651.16;4847029;29;20038;-79
2022/03/29 04:44:18;;;;;;;5.78;2.20;;;;;;;3.15;63.55;97632.31;4836024;29;20056;-76
2022/03/29 04:46:47;;;;;;;3.78;1.88;;;;;;;3.41;63.78;97656.81;4834391;29;20477;-78
2022/03/29 04:49:13;;;;;;;4.90;1.80;;;;;;;3.34;63.31;97645.72;4821130;29;20054;-78
2022/03/29 04:51:39;;;;;;;4.05;1.50;;;;;;;3.44;62.97;97642.16;4822226;29;20041;-78
2022/03/29 04:54:05;;;;;;;4.43;1.60;;;;;;;3.67;63.14;97622.09;4851220;29;20077;-77
2022/03/29 04:56:33;;;;;;;3.25;1.38;;;;;;;3.94;62.61;97641.41;4819032;29;20041;-78
2022/03/29 04:58:58;;;;;;;3.90;1.20;;;;;;;4.36;63.11;97658.69;4852230;29;20137;-80
2022/03/29 05:01:24;;;;;;;4.15;1.58;;;;;;;4.56;62.94;97668.66;4850829;29;20544;-78
2022/03/29 05:03:50;;;;;;;3.75;1.48;;;;;;;4.58;61.52;97655.72;4834122;29;20054;-78
2022/03/29 05:06:16;;;;;;;2.42;1.58;;;;;;;4.63;61.98;97671.94;4851170;29;20057;-78
2022/03/29 05:08:42;;;;;;;1.98;1.20;;;;;;;4.31;61.40;97637.31;4836393;29;20081;-78
2022/03/29 05:11:09;;;;;;;3.80;1.48;;;;;;;4.46;61.14;97670.53;4820415;29;20305;-78
2022/03/29 05:13:35;;;;;;;2.72;1.60;;;;;;;4.30;61.34;97653.69;4851057;29;20131;-78
2022/03/29 05:16:01;;;;;;;3.10;1.55;;;;;;;4.32;60.77;97663.06;4839917;29;20525;-79
2022/03/29 05:18:27;;;;;;;2.65;1.45;;;;;;;4.47;60.97;97673.94;4848623;29;20052;-76
2022/03/29 05:20:53;;;;;;;3.70;1.70;;;;;;;4.58;61.07;97673.75;4804833;29;20045;-78
2022/03/29 05:23:19;;;;;;;3.25;1.60;;;;;;;4.64;60.83;97653.03;4842911;29;20121;-79
2022/03/29 05:25:45;;;;;;;3.63;1.73;;;;;;;4.83;60.24;97677.56;4809749;29;20046;-78
2022/03/29 05:28:12;;;;;;;5.43;1.80;;;;;;;4.74;59.91;97664.00;4843017;29;20106;-80
2022/03/29 05:30:38;;;;;;;3.72;1.98;;;;;;;4.73;60.17;97668.34;4856578;29;20045;-78
2022/03/29 05:33:10;;;;;;;3.40;1.55;;;;;;;4.74;59.81;97672.59;4846724;29;20098;-80
2022/03/29 05:35:36;;;;;;;2.60;1.63;;;;;;;4.54;60.09;97670.41;4839609;29;20165;-78
2022/03/29 05:38:03;;;;;;;3.45;1.70;;;;;;;4.48;59.92;97678.22;4838189;29;20156;-78
2022/03/29 05:40:30;;;;;;;4.50;1.65;;;;;;;4.47;59.40;97694.56;4830104;29;20041;-77
2022/03/29 05:42:56;;;;;;;4.93;1.83;;;;;;;4.34;60.11;97657.88;4838348;29;20113;-78
2022/03/29 05:45:22;;;;;;;2.53;1.55;;;;;;;4.31;59.47;97676.81;4828908;29;20046;-77
2022/03/29 05:50:34;;;;;;;4.43;2.03;;;;;;;4.15;59.65;97623.91;4836205;29;20509;-80
2022/03/29 05:53:01;;;;;;;8.18;2.28;;;;;;;4.59;59.69;97689.19;4838374;29;20040;-77
2022/03/29 05:55:28;;;;;;;3.90;2.08;;;;;;;4.67;59.48;97681.31;4837536;29;20098;-79
2022/03/29 05:57:55;;;;;;;2.78;1.48;;;;;;;4.68;58.37;97677.88;4839301;29;20471;-78
2022/03/29 06:00:23;;;;;;;3.45;1.67;;;;;;;4.79;59.82;97673.34;4838856;29;20502;-78
2022/03/29 06:02:52;;;;;;;4.82;2.05;;;;;;;4.84;59.95;97634.63;4838528;29;20112;-80
2022/03/29 06:05:18;;;;;;;5.70;2.17;;;;;;;5.38;59.06;97681.63;4841526;29;20569;-77
2022/03/29 06:07:44;;;;;;;4.45;2.40;;;;;;;5.73;59.33;97672.25;4823056;29;20089;-77
2022/03/29 06:10:11;;;;;;;4.85;2.55;;;;;;;6.03;58.43;97675.88;4830059;29;20057;-79
2022/03/29 06:12:37;;;;;;;5.82;2.03;;;;;;;5.99;57.34;97660.44;4844476;29;20042;-80
2022/03/29 06:15:05;;;;;;;5.45;2.00;;;;;;;5.95;57.54;97679.50;4855009;29;20418;-79
2022/03/29 06:17:31;;;;;;;3.75;1.70;;;;;;;5.91;56.52;97683.84;4838857;29;20046;-78
2022/03/29 06:19:57;;;;;;;2.08;1.40;;;;;;;5.65;56.94;97654.34;4841022;29;20050;-80
2022/03/29 06:22:23;;;;;;;3.45;1.50;;;;;;;5.83;56.87;97693.53;4807373;29;20050;-80
2022/03/29 06:24:50;;;;;;;4.15;1.73;;;;;;;5.69;57.01;97704.16;4821835;29;20386;-81
2022/03/29 06:27:16;;;;;;;3.40;1.83;;;;;;;5.28;56.87;97645.72;4838231;29;20056;-79
2022/03/29 06:29:42;;;;;;;2.15;1.50;;;;;;;5.38;56.56;97687.63;4838121;29;20045;-81
2022/03/29 06:32:08;;;;;;;3.28;1.48;;;;;;;5.51;56.92;97718.31;4837059;29;20046;-79
2022/03/29 06:34:34;;;;;;;1.17;1.02;;;;;;;5.53;57.01;97747.50;4838253;29;20061;-79
2022/03/29 06:37:00;;;;;;;1.23;0.93;;;;;;;5.26;56.25;97745.47;4838908;29;20069;-79
2022/03/29 06:39:27;;;;;;;1.42;1.08;;;;;;;5.05;56.93;97759.63;4845006;29;20068;-80
2022/03/29 06:41:55;;;;;;;1.40;1.10;;;;;;;4.93;57.11;97775.34;4838380;29;20475;-79
2022/03/29 06:44:23;;;;;;;1.88;0.93;;;;;;;4.65;57.41;97753.47;4829696;29;20081;-83
2022/03/29 06:46:50;;;;;;;1.17;0.98;;;;;;;4.41;57.09;97762.47;4829145;29;20091;-78
2022/03/29 06:49:17;;;;;;;1.50;1.15;;;;;;;4.27;58.16;97761.88;4839070;29;20474;-81
2022/03/29 06:51:45;;;;;;;1.40;1.00;;;;;;;4.32;59.16;97781.50;4806465;29;20046;-80
2022/03/29 06:54:12;;;;;;;2.85;1.20;;;;;;;4.44;58.91;97784.75;4821840;29;20056;-82
2022/03/29 06:56:38;;;;;;;1.15;0.90;;;;;;;4.46;59.01;97770.13;4837779;29;20065;-80
2022/03/29 06:59:04;;;;;;;2.10;1.13;;;;;;;4.41;59.05;97767.63;4823090;29;20049;-78
2022/03/29 07:01:30;;;;;;;1.20;1.00;;;;;;;4.46;59.28;97801.03;4815841;29;20403;-77
2022/03/29 07:04:00;;;;;;;2.78;1.27;;;;;;;4.51;59.54;97797.53;4823540;29;20408;-80
2022/03/29 07:06:31;;;;;;;1.55;1.23;;;;;;;4.50;59.28;97788.09;4852516;29;20050;-79
2022/03/29 07:11:43;;;;;;;3.13;1.50;;;;;;;4.74;59.80;97793.72;4822419;29;20098;-78
2022/03/29 07:14:09;;;;;;;6.72;3.80;;;;;;;4.83;59.61;97806.44;4823266;29;20058;-77
2022/03/29 07:16:35;;;;;;;1.63;1.50;;;;;;;4.85;59.95;97782.34;4853874;29;20118;-76
2022/03/29 07:19:01;;;;;;;8.75;5.05;;;;;;;5.12;59.65;97797.31;4838425;29;20052;-78
2022/03/29 07:21:27;;;;;;;3.55;1.98;;;;;;;5.42;59.27;97807.06;4813794;29;20051;-78
2022/03/29 07:23:53;;;;;;;2.55;1.40;;;;;;;5.68;59.46;97813.44;4820312;29;20709;-78
2022/03/29 07:26:19;;;;;;;1.80;1.35;;;;;;;5.82;59.36;97800.25;4836853;29;20498;-78
2022/03/29 07:28:46;;;;;;;1.92;1.40;;;;;;;6.01;58.29;97795.53;4837646;29;20046;-80
2022/03/29 07:31:12;;;;;;;3.67;1.30;;;;;;;6.20;57.21;97824.38;4857648;29;20053;-79
2022/03/29 07:33:38;;;;;;;2.53;1.50;;;;;;;5.73;57.09;97784.06;4866224;29;20042;-79
2022/03/29 07:36:05;;;;;;;2.55;1.50;;;;;;;5.87;58.06;97819.03;4853856;29;20071;-78
2022/03/29 07:38:31;;;;;;;3.55;1.30;;;;;;;5.95;56.66;97845.56;4827573;29;20183;-79
2022/03/29 07:40:57;;;;;;;2.00;1.25;;;;;;;5.87;56.37;97844.84;4862754;29;20048;-77
2022/03/29 07:43:23;;;;;;;2.33;1.30;;;;;;;5.14;55.96;97756.03;4834718;29;20061;-77
2022/03/29 07:45:50;;;;;;;1.90;1.40;;;;;;;5.48;56.08;97837.03;4819660;29;20947;-78
2022/03/29 07:48:20;;;;;;;1.88;1.30;;;;;;;5.47;56.85;97866.31;4835653;29;20407;-79
2022/03/29 07:50:46;;;;;;;1.52;1.30;;;;;;;5.46;56.50;97862.03;4826815;29;20118;-80
2022/03/29 07:53:12;;;;;;;3.35;1.70;;;;;;;5.43;56.25;97832.81;4820916;29;20148;-81
2022/03/29 07:55:40;;;;;;;5.20;1.95;;;;;;;6.05;57.07;97835.91;4837818;29;20585;-78
2022/03/29 07:58:06;;;;;;;2.05;1.70;;;;;;;8.28;57.83;97863.75;4821812;29;20081;-77
2022/03/29 08:00:36;;;;;;;2.35;1.85;;;;;;;9.26;56.26;97841.66;4820865;29;20045;-78
2022/03/29 08:03:06;;;;;;;3.03;1.90;;;;;;;9.61;55.31;97857.72;4823381;29;20058;-77
2022/03/29 08:05:34;;;;;;;2.40;1.83;;;;;;;9.46;54.11;97851.31;4837627;29;20068;-79
2022/03/29 08:08:01;;;;;;;1.90;1.60;;;;;;;9.15;53.28;97855.81;4819217;29;20544;-78
2022/03/29 08:10:29;;;;;;;3.20;1.60;;;;;;;8.83;52.98;97875.06;4811559;29;20473;-79
2022/03/29 08:12:57;;;;;;;3.47;1.60;;;;;;;8.46;52.91;97871.84;4836097;29;20102;-78
2022/03/29 08:15:23;;;;;;;2.15;1.60;;;;;;;8.26;52.68;97875.91;4836773;29;20074;-78
2022/03/29 08:17:54;;;;;;;2.25;1.98;;;;;;;8.36;53.04;97847.13;4821308;29;20046;-77
2022/03/29 08:20:20;;;;;;;2.33;1.50;;;;;;;9.09;51.64;97881.97;4820924;29;20069;-79
2022/03/29 08:22:46;;;;;;;2.45;1.48;;;;;;;9.14;51.03;97881.84;4821907;29;20088;-80
2022/03/29 08:25:18;;;;;;;2.45;1.50;;;;;;;8.85;50.92;97852.53;4820067;29;20050;-77
2022/03/29 08:27:57;;;;;;;3.15;1.90;;;;;;;8.89;50.25;97867.09;4850234;29;20056;-77
2022/03/29 08:30:25;;;;;;;5.65;2.33;;;;;;;8.77;50.19;97828.56;4836030;29;20567;-77
2022/03/29 08:32:54;;;;;;;2.72;2.00;;;;;;;9.18;50.10;97880.81;4836667;29;20069;-77
2022/03/29 08:35:20;;;;;;;2.20;1.60;;;;;;;9.46;49.11;97893.72;4834840;29;20037;-80
2022/03/29 08:37:48;;;;;;;1.95;1.65;;;;;;;9.69;48.49;97899.00;4821071;29;20578;-78
2022/03/29 08:40:22;;;;;;;2.65;2.20;;;;;;;9.76;47.69;97900.47;4837806;29;20129;-79
2022/03/29 08:42:54;;;;;;;2.65;1.60;;;;;;;9.67;47.22;97825.47;4816149;29;20050;-78
2022/03/29 08:45:28;;;;;;;1.98;1.45;;;;;;;10.39;47.25;97819.31;4802044;29;20060;-79
2022/03/29 08:47:56;;;;;;;6.38;2.08;;;;;;;11.22;45.70;97903.56;4820097;29;20045;-77
2022/03/29 08:50:35;;;;;;;3.28;1.50;;;;;;;10.90;44.88;97899.69;4820150;29;20506;-78
2022/03/29 08:53:04;;;;;;;3.83;1.80;;;;;;;11.03;45.11;97916.50;4836567;29;20502;-79
2022/03/29 08:55:32;;;;;;;5.10;3.25;;;;;;;11.17;43.79;97909.84;4833132;29;20118;-78
2022/03/29 08:57:58;;;;;;;5.80;3.58;;;;;;;11.66;43.22;97889.53;4840654;29;20514;-80
2022/03/29 09:00:24;;;;;;;6.63;2.80;;;;;;;12.11;42.92;97892.81;4823583;29;20057;-79
2022/03/29 09:02:51;;;;;;;4.97;2.40;;;;;;;12.41;42.68;97913.16;4824268;29;20046;-78
2022/03/29 09:05:21;;;;;;;2.72;1.75;;;;;;;12.45;41.67;97895.63;4839486;29;20502;-80
2022/03/29 09:07:55;;;;;;;8.40;2.25;;;;;;;12.45;41.84;97929.53;4849554;29;20073;-79
2022/03/29 09:10:44;;;;;;;3.03;2.10;;;;;;;12.23;41.03;97927.91;4816297;29;20425;-80
2022/03/29 09:13:21;;;;;;;3.05;1.92;;;;;;;11.90;41.12;97938.91;4824333;29;21981;-79
2022/03/29 09:15:48;;;;;;;3.00;2.10;;;;;;;11.83;40.60;97929.66;4823771;29;20141;-80
2022/03/29 09:18:16;;;;;;;3.00;1.80;;;;;;;11.60;40.54;97927.13;4839964;29;20109;-79
2022/03/29 09:20:42;;;;;;;3.28;1.67;;;;;;;11.51;40.60;97943.16;4841654;29;20046;-81
2022/03/29 09:23:13;;;;;;;3.03;1.90;;;;;;;10.89;40.32;97937.03;4839511;29;20062;-81
2022/03/29 09:25:48;;;;;;;2.42;1.85;;;;;;;10.59;40.66;97960.72;4876096;29;20056;-80
2022/03/29 09:28:20;;;;;;;2.00;1.77;;;;;;;10.08;41.22;97920.09;4822399;29;20038;-78
2022/03/29 09:30:50;;;;;;;1.60;1.50;;;;;;;10.37;41.88;97956.28;4848269;29;20058;-78
2022/03/29 09:33:19;;;;;;;2.03;1.60;;;;;;;10.73;41.78;97963.63;4843436;29;20143;-81
2022/03/29 09:36:10;;;;;;;2.22;1.83;;;;;;;11.05;40.23;97922.47;4842704;29;20073;-80
2022/03/29 09:38:47;;;;;;;2.65;1.90;;;;;;;11.43;40.19;97953.88;4857267;29;20053;-81
2022/03/29 09:41:32;;;;;;;2.53;1.50;;;;;;;11.70;40.01;97961.44;4854058;29;20502;-81
2022/03/29 09:44:00;;;;;;;4.18;1.60;;;;;;;11.68;39.99;97965.88;4820215;29;20049;-80
2022/03/29 09:46:26;;;;;;;4.30;1.80;;;;;;;11.63;39.74;97952.19;4827977;29;20049;-80
2022/03/29 09:48:59;;;;;;;2.90;2.00;;;;;;;11.60;40.06;97966.22;4825730;29;20049;-78
2022/03/29 09:51:27;;;;;;;2.45;1.90;;;;;;;11.45;40.01;97941.66;4842879;29;20132;-78
2022/03/29 09:53:56;;;;;;;2.00;1.80;;;;;;;12.37;39.85;97960.34;4824906;29;20038;-83
2022/03/29 09:56:29;;;;;;;2.38;1.92;;;;;;;13.83;38.86;97939.38;4840634;29;20078;-79
2022/03/29 09:59:07;;;;;;;2.75;1.85;;;;;;;14.97;37.18;97955.13;4825793;29;20049;-80
2022/03/29 10:01:44;;;;;;;2.65;1.77;;;;;;;15.14;36.01;97950.69;4829389;29;20053;-77
2022/03/29 10:04:11;;;;;;;2.67;1.90;;;;;;;15.26;35.52;97955.25;4847436;29;20080;-80
2022/03/29 10:06:37;;;;;;;3.15;1.67;;;;;;;14.99;34.70;97958.50;4820777;29;20563;-79
2022/03/29 10:11:49;;;;;;;3.50;2.22;;;;;;;14.03;34.76;97962.78;4847893;29;20053;-77
2022/03/29 10:14:20;;;;;;;2.20;1.88;;;;;;;13.44;34.82;97919.59;4844116;29;20110;-81
2022/03/29 10:16:51;;;;;;;2.35;1.92;;;;;;;13.42;34.71;97959.78;4814523;29;20041;-80
2022/03/29 10:19:19;;;;;;;2.47;2.20;;;;;;;13.19;34.98;97965.16;4862689;29;20050;-79
2022/03/29 10:21:46;;;;;;;3.15;2.47;;;;;;;12.72;34.65;97931.75;4863060;29;20049;-81
2022/03/29 10:24:18;;;;;;;3.22;2.65;;;;;;;12.61;34.85;97968.78;4842187;29;20475;-81
2022/03/29 10:26:46;;;;;;;2.97;2.30;;;;;;;12.13;34.51;97982.25;4840355;29;20051;-80
2022/03/29 10:29:13;;;;;;;3.08;2.20;;;;;;;11.52;35.66;97951.81;4840330;29;20074;-80
2022/03/29 10:31:49;;;;;;;3.00;2.13;;;;;;;11.37;35.64;97981.94;4829810;29;20070;-80
2022/03/29 10:34:20;;;;;;;3.10;2.20;;;;;;;11.18;35.71;97985.31;4829875;29;20046;-82
2022/03/29 10:37:12;;;;;;;3.08;2.10;;;;;;;11.02;36.16;98000.69;4830020;29;20042;-79
2022/03/29 10:39:58;;;;;;;2.55;2.25;;;;;;;10.80;36.46;98000.69;4837514;29;20489;-79
2022/03/29 10:43:17;;;;;;;3.67;2.20;;;;;;;10.74;36.55;98012.16;4852687;29;20053;-82
2022/03/29 10:45:44;;;;;;;3.22;1.95;;;;;;;10.51;36.50;97994.81;4837203;29;20440;-79
2022/03/29 10:48:12;;;;;;;3.50;2.00;;;;;;;10.32;37.02;98011.06;4833093;29;20039;-81
2022/03/29 10:50:59;;;;;;;2.55;2.00;;;;;;;10.09;37.01;97991.09;4847953;29;20081;-83
2022/03/29 10:53:31;;;;;;;3.13;2.30;;;;;;;10.34;36.90;98016.19;4847419;29;20081;-81
2022/03/29 10:56:25;;;;;;;4.72;2.10;;;;;;;9.97;37.11;97952.56;4845254;29;20046;-85
2022/03/29 10:59:15;;;;;;;2.70;2.05;;;;;;;10.03;36.93;98019.91;4835774;29;21480;-83
2022/03/29 11:01:45;;;;;;;3.03;2.10;;;;;;;9.51;37.32;97961.06;4877282;29;20073;-82
2022/03/29 11:04:23;;;;;;;3.78;2.25;;;;;;;9.31;37.20;97930.56;4834800;29;20069;-79
2022/03/29 11:07:05;;;;;;;7.97;2.60;;;;;;;9.68;37.74;98029.75;4873893;29;20375;-82
2022/03/29 11:09:33;;;;;;;2.47;2.20;;;;;;;9.55;37.72;98030.16;4854550;29;20117;-82
2022/03/29 11:11:59;;;;;;;2.60;2.25;;;;;;;9.40;38.02;98021.13;4859836;29;20110;-79
2022/03/29 11:14:30;;;;;;;2.63;2.35;;;;;;;9.30;37.97;98020.56;4844718;29;20102;-82
2022/03/29 11:17:10;;;;;;;6.53;2.23;;;;;;;9.33;38.62;98019.63;4849794;29;20049;-79
2022/03/29 11:19:50;;;;;;;3.83;2.30;;;;;;;9.33;38.81;98010.09;4871823;29;20287;-81
2022/03/29 11:22:22;;;;;;;2.60;2.20;;;;;;;9.45;38.85;98014.03;4838497;29;20044;-80
2022/03/29 11:24:53;;;;;;;5.32;2.22;;;;;;;9.05;39.11;97953.03;4858497;29;20034;-80
2022/03/29 11:27:31;;;;;;;3.38;2.28;;;;;;;9.45;39.23;98019.25;4876365;29;20069;-81
2022/03/29 11:29:58;;;;;;;4.00;2.20;;;;;;;9.43;39.31;98022.75;4842415;29;20060;-80
2022/03/29 11:32:24;;;;;;;6.18;2.60;;;;;;;9.14;39.26;97985.63;4853930;29;20071;-81
2022/03/29 11:34:55;;;;;;;4.38;2.38;;;;;;;9.34;39.45;98022.19;4854741;29;20052;-82
2022/03/29 11:37:32;;;;;;;4.25;2.50;;;;;;;9.30;39.32;97986.84;4836338;29;20049;-80
2022/03/29 11:40:03;;;;;;;3.97;2.50;;;;;;;9.53;38.85;98013.78;4850154;29;20073;-85
2022/03/29 11:42:49;;;;;;;2.78;2.33;;;;;;;8.92;39.37;97934.44;4851319;29;20052;-81
2022/03/29 11:45:20;;;;;;;3.20;2.22;;;;;;;9.38;39.32;97998.72;4852997;29;20045;-81
2022/03/29 11:48:00;;;;;;;2.90;2.50;;;;;;;9.51;39.17;98018.19;4863434;29;20065;-77
2022/03/29 11:50:32;;;;;;;7.80;2.53;;;;;;;9.41;39.02;98024.56;4855291;29;20389;-81
2022/03/29 11:52:59;;;;;;;3.58;2.72;;;;;;;9.33;39.49;98006.63;4868167;29;20074;-80
2022/03/29 11:55:26;;;;;;;2.67;2.20;;;;;;;9.68;39.40;98024.56;4847345;29;20737;-81
2022/03/29 11:57:53;;;;;;;3.58;2.25;;;;;;;9.83;39.17;98036.19;4817899;29;20038;-81
2022/03/29 12:00:27;;;;;;;3.30;2.00;;;;;;;9.77;38.77;98045.88;4841575;29;20054;-83